createdAt,value
2018-06-12T00:01:14.356Z,22.60
2018-06-12T00:06:17.640Z,23.00
2018-06-12T00:11:20.895Z,22.70
2018-06-12T00:16:24.123Z,22.70
2018-06-12T00:21:27.366Z,22.70
2018-06-12T00:26:30.598Z,22.60
2018-06-12T00:31:33.849Z,22.60
2018-06-12T00:36:37.091Z,22.30
2018-06-12T00:41:40.323Z,22.10
2018-06-12T00:46:43.598Z,22.40
2018-06-12T00:51:46.848Z,22.20
2018-06-12T00:57:01.483Z,22.20
2018-06-12T01:02:05.160Z,22.20
2018-06-12T01:07:08.427Z,22.40
2018-06-12T01:12:11.696Z,22.30
2018-06-12T01:17:14.955Z,22.30
2018-06-12T01:22:18.182Z,22.20
2018-06-12T01:27:21.383Z,22.20
2018-06-12T01:32:24.624Z,21.80
2018-06-12T01:37:27.840Z,22.00
2018-06-12T01:42:31.112Z,22.00
2018-06-12T01:47:34.354Z,22.00
2018-06-12T01:52:37.571Z,21.90
2018-06-12T01:57:40.839Z,21.80
2018-06-12T02:02:44.071Z,21.80
2018-06-12T02:07:47.303Z,21.80
2018-06-12T02:12:50.559Z,21.80
2018-06-12T02:17:53.768Z,21.70
2018-06-12T02:22:56.983Z,21.70
2018-06-12T02:28:00.208Z,21.70
2018-06-12T02:33:03.428Z,21.70
2018-06-12T02:38:06.635Z,21.60
2018-06-12T02:43:09.855Z,21.70
2018-06-12T02:48:13.108Z,21.70
2018-06-12T02:53:16.315Z,21.80
2018-06-12T02:58:19.547Z,21.30
2018-06-12T03:03:22.763Z,21.60
2018-06-12T03:08:25.964Z,21.50
2018-06-12T03:13:29.220Z,21.50
2018-06-12T03:18:32.441Z,21.70
2018-06-12T03:23:35.676Z,21.60
2018-06-12T03:28:38.894Z,21.60
2018-06-12T03:33:42.127Z,21.80
2018-06-12T03:38:45.335Z,21.70
2018-06-12T03:43:48.605Z,21.80
2018-06-12T03:48:52.872Z,21.30
2018-06-12T03:53:57.672Z,21.60
2018-06-12T03:59:01.660Z,21.50
2018-06-12T04:04:05.995Z,21.20
2018-06-12T04:09:09.408Z,21.60
2018-06-12T04:14:12.661Z,21.60
2018-06-12T04:19:15.860Z,21.60
2018-06-12T04:24:19.067Z,21.50
2018-06-12T04:29:23.140Z,21.40
2018-06-12T04:34:26.366Z,21.50
2018-06-12T04:39:29.618Z,21.30
2018-06-12T04:44:32.822Z,21.20
2018-06-12T04:54:40.162Z,21.40
2018-06-12T04:59:43.331Z,21.30
2018-06-12T05:04:46.536Z,21.40
2018-06-12T05:09:49.750Z,21.00
2018-06-12T05:14:52.988Z,21.40
2018-06-12T05:19:56.261Z,21.40
2018-06-12T05:24:59.464Z,21.60
2018-06-12T05:30:02.700Z,21.30
2018-06-12T05:35:05.968Z,21.40
2018-06-12T05:40:09.173Z,21.20
2018-06-12T05:45:12.392Z,21.20
2018-06-12T05:50:15.603Z,21.40
2018-06-12T05:55:18.858Z,21.50
2018-06-12T06:00:22.071Z,21.20
2018-06-12T06:05:25.291Z,21.20
2018-06-12T06:10:28.576Z,21.10
2018-06-12T06:15:31.800Z,21.10
2018-06-12T06:20:35.048Z,21.00
2018-06-12T06:25:38.311Z,21.10
2018-06-12T06:30:41.539Z,21.00
2018-06-12T06:35:44.815Z,21.20
2018-06-12T06:40:48.043Z,21.10
2018-06-12T06:45:51.276Z,20.90
2018-06-12T06:50:54.597Z,21.30
2018-06-12T06:55:57.795Z,21.10
2018-06-12T07:01:01.038Z,21.00
2018-06-12T07:06:04.273Z,21.30
2018-06-12T07:11:07.519Z,21.30
2018-06-12T07:16:10.795Z,21.40
2018-06-12T07:21:18.762Z,21.40
2018-06-12T07:26:22.022Z,21.10
2018-06-12T07:31:25.251Z,21.20
2018-06-12T07:36:28.526Z,21.10
2018-06-12T07:41:31.739Z,21.30
2018-06-12T07:46:34.979Z,21.10
2018-06-12T07:51:38.252Z,21.20
2018-06-12T07:56:41.495Z,21.00
2018-06-12T08:01:44.824Z,21.00
2018-06-12T08:06:48.073Z,21.30
2018-06-12T08:11:51.310Z,21.20
2018-06-12T08:16:54.539Z,21.20
2018-06-12T08:21:57.750Z,21.20
2018-06-12T08:27:00.972Z,21.70
2018-06-12T08:32:04.234Z,21.40
2018-06-12T08:42:10.496Z,21.40
2018-06-12T08:47:13.699Z,21.50
2018-06-12T08:52:16.921Z,21.50
2018-06-12T08:57:20.171Z,21.50
2018-06-12T09:02:23.386Z,21.60
2018-06-12T09:07:26.615Z,21.50
2018-06-12T09:12:29.885Z,21.70
2018-06-12T09:17:33.125Z,21.60
2018-06-12T09:22:36.360Z,21.70
2018-06-12T09:27:44.932Z,21.70
2018-06-12T09:32:48.164Z,21.90
2018-06-12T09:37:51.415Z,21.80
2018-06-12T09:42:54.650Z,21.80
2018-06-12T09:47:57.935Z,21.90
2018-06-12T09:53:01.166Z,21.80
2018-06-12T09:58:04.414Z,21.90
2018-06-12T10:03:07.607Z,21.70
2018-06-12T10:08:10.854Z,21.70
2018-06-12T10:13:14.162Z,22.10
2018-06-12T10:18:17.395Z,22.10
2018-06-12T10:23:20.656Z,22.20
2018-06-12T10:28:23.891Z,22.30
2018-06-12T10:33:27.126Z,22.00
2018-06-12T10:38:30.355Z,22.60
2018-06-12T10:43:33.676Z,22.70
2018-06-12T10:48:36.893Z,22.50
2018-06-12T10:53:40.129Z,22.40
2018-06-12T10:58:43.391Z,22.60
2018-06-12T11:03:46.624Z,22.40
2018-06-12T11:08:49.887Z,22.80
2018-06-12T11:13:53.283Z,22.90
2018-06-12T11:18:56.540Z,22.80
2018-06-12T11:23:59.801Z,22.50
2018-06-12T11:29:03.083Z,23.10
2018-06-12T11:34:06.327Z,22.90
2018-06-12T11:39:09.720Z,22.70
2018-06-12T11:44:12.962Z,23.10
2018-06-12T11:49:16.223Z,23.10
2018-06-12T11:54:19.526Z,23.20
2018-06-12T11:59:22.772Z,23.20
2018-06-12T12:04:26.031Z,23.30
2018-06-12T12:09:29.255Z,23.10
2018-06-12T12:14:32.510Z,23.30
2018-06-12T12:19:35.723Z,23.40
2018-06-12T12:24:38.936Z,23.50
2018-06-12T12:29:42.171Z,23.50
2018-06-12T12:34:45.593Z,23.50
2018-06-12T12:39:48.879Z,23.50
2018-06-12T12:44:52.095Z,23.70
2018-06-12T12:49:55.404Z,23.80
2018-06-12T12:54:58.635Z,23.90
2018-06-12T13:00:01.851Z,23.90
2018-06-12T13:05:05.292Z,23.80
2018-06-12T13:10:08.568Z,23.70
2018-06-12T13:15:11.831Z,23.80
2018-06-12T13:20:15.104Z,23.80
2018-06-12T13:25:18.387Z,23.80
2018-06-12T13:30:21.639Z,23.90
2018-06-12T13:35:24.867Z,23.90
2018-06-12T13:40:28.082Z,24.00
2018-06-12T13:45:31.296Z,24.10
2018-06-12T13:55:37.489Z,24.00
2018-06-12T14:00:40.701Z,24.00
2018-06-12T14:05:43.906Z,23.80
2018-06-12T14:10:47.159Z,23.90
2018-06-12T14:15:50.372Z,23.80
2018-06-12T14:20:53.612Z,23.60
2018-06-12T14:25:56.832Z,23.20
2018-06-12T14:31:00.160Z,23.50
2018-06-12T14:36:03.405Z,23.40
2018-06-12T14:41:06.607Z,23.40
2018-06-12T14:46:09.966Z,23.40
2018-06-12T14:51:13.177Z,23.30
2018-06-12T14:56:16.411Z,23.20
2018-06-12T15:01:19.688Z,23.50
2018-06-12T15:06:22.915Z,23.30
2018-06-12T15:11:26.200Z,23.30
2018-06-12T15:16:29.427Z,23.40
2018-06-12T15:21:32.653Z,23.30
2018-06-12T15:26:35.883Z,23.30
2018-06-12T15:31:39.111Z,23.30
2018-06-12T15:36:42.347Z,23.30
2018-06-12T15:41:45.579Z,23.30
2018-06-12T15:46:48.803Z,22.80
2018-06-12T15:51:52.039Z,23.10
2018-06-12T15:56:55.289Z,23.10
2018-06-12T16:01:58.506Z,23.00
2018-06-12T16:07:01.721Z,22.90
2018-06-12T16:12:04.997Z,23.00
2018-06-12T16:17:08.253Z,23.00
2018-06-12T16:22:11.497Z,22.90
2018-06-12T16:27:14.732Z,22.70
2018-06-12T16:32:17.964Z,22.90
2018-06-12T16:37:21.196Z,22.90
2018-06-12T16:42:24.403Z,22.90
2018-06-12T16:47:27.652Z,22.30
2018-06-12T16:52:30.892Z,22.60
2018-06-12T16:57:34.163Z,22.80
2018-06-12T17:02:37.490Z,23.00
2018-06-12T17:07:40.791Z,22.70
2018-06-12T17:12:44.132Z,22.70
2018-06-12T17:17:47.381Z,22.90
2018-06-12T17:22:50.644Z,22.60
2018-06-12T17:27:53.896Z,22.90
2018-06-12T17:32:57.176Z,23.00
2018-06-12T17:38:00.455Z,22.90
2018-06-12T17:43:03.812Z,22.90
2018-06-12T17:48:07.079Z,23.10
2018-06-12T17:53:10.307Z,23.10
2018-06-12T17:58:13.596Z,23.00
2018-06-12T18:03:16.999Z,23.00
2018-06-12T18:08:20.235Z,22.90
2018-06-12T18:13:23.557Z,23.10
2018-06-12T18:18:26.845Z,23.10
2018-06-12T18:23:30.172Z,22.80
2018-06-12T18:28:33.476Z,22.90
2018-06-12T18:33:37.162Z,22.70
2018-06-12T18:38:40.391Z,22.90
2018-06-12T18:43:43.725Z,23.00
2018-06-12T18:48:47.116Z,22.80
2018-06-12T18:53:50.463Z,22.90
2018-06-12T18:58:53.987Z,22.80
2018-06-12T19:03:57.293Z,22.90
2018-06-12T19:09:01.352Z,22.70
2018-06-12T19:14:04.774Z,22.50
2018-06-12T19:19:08.227Z,22.30
2018-06-12T19:24:11.524Z,22.30
2018-06-12T19:29:14.885Z,22.20
2018-06-12T19:34:18.459Z,22.20
2018-06-12T19:39:21.692Z,22.20
2018-06-12T19:44:26.235Z,22.20
2018-06-12T19:49:29.539Z,22.00
2018-06-12T19:54:32.949Z,22.00
2018-06-12T19:59:36.152Z,21.80
2018-06-12T20:04:39.362Z,22.00
2018-06-12T20:09:42.593Z,21.70
2018-06-12T20:14:45.843Z,21.80
2018-06-12T20:19:49.061Z,22.00
2018-06-12T20:24:52.331Z,22.10
2018-06-12T20:29:55.516Z,21.80
2018-06-12T20:34:58.788Z,22.00
2018-06-12T20:40:02.116Z,21.70
2018-06-12T20:45:05.372Z,21.70
2018-06-12T20:50:08.647Z,21.50
2018-06-12T20:55:11.925Z,21.50
2018-06-12T21:00:15.174Z,21.50
2018-06-12T21:05:18.485Z,21.50
2018-06-12T21:10:21.716Z,21.50
2018-06-12T21:15:24.987Z,21.40
2018-06-12T21:20:28.223Z,21.40
2018-06-12T21:25:31.476Z,21.50
2018-06-12T21:30:34.719Z,21.60
2018-06-12T21:35:37.984Z,21.30
2018-06-12T21:40:41.272Z,21.60
2018-06-12T21:45:44.524Z,21.40
2018-06-12T21:50:47.795Z,21.30
2018-06-12T21:55:51.086Z,21.10
2018-06-12T22:00:54.272Z,21.40
2018-06-12T22:05:57.544Z,21.30
2018-06-12T22:11:00.804Z,21.40
2018-06-12T22:16:04.016Z,21.50
2018-06-12T22:21:07.268Z,21.20
2018-06-12T22:26:10.532Z,21.30
2018-06-12T22:31:13.738Z,21.30
2018-06-12T22:36:16.942Z,21.20
2018-06-12T22:41:20.184Z,21.50
2018-06-12T22:46:23.416Z,21.60
2018-06-12T22:51:26.706Z,21.20
2018-06-12T22:56:29.888Z,21.40
2018-06-12T23:01:33.135Z,21.10
2018-06-12T23:06:36.331Z,21.40
2018-06-12T23:11:39.556Z,21.10
2018-06-12T23:16:42.772Z,21.20
2018-06-12T23:21:58.940Z,21.00
2018-06-12T23:27:02.183Z,21.20
2018-06-12T23:32:05.380Z,21.30
2018-06-12T23:37:08.600Z,21.20
2018-06-12T23:42:11.804Z,21.00
2018-06-12T23:47:15.031Z,21.10
2018-06-12T23:52:18.235Z,21.30
2018-06-12T23:57:21.446Z,21.20
